Time;durP1;ratioP1;P1;durP2;ratioP2;P2;SDS_P1;SDS_P2;PMS_P1;PMS_P2;Temp;Humidity;BMP_temperature;BMP_pressure;BME280_temperature;BME280_humidity;BME280_pressure;Samples;Min_cycle;Max_cycle;Signal;HPM_P1;HPM_P2
2023/06/20 00:01:18;;;;;;;6.50;6.00;;;;;;;16.72;100.00;99573.72;104991;1262;65507;-56
2023/06/20 00:03:45;;;;;;;5.80;5.40;;;;;;;16.72;100.00;99577.54;105041;1257;72768;-55
2023/06/20 00:06:13;;;;;;;5.80;5.40;;;;;;;16.65;100.00;99575.48;105621;1257;60900;-54
2023/06/20 00:08:40;;;;;;;5.40;4.90;;;;;;;16.58;100.00;99575.27;105118;1263;60463;-53
2023/06/20 00:11:07;;;;;;;6.70;5.70;;;;;;;16.57;100.00;99575.17;105151;1262;73732;-53
2023/06/20 00:13:36;;;;;;;7.90;5.40;;;;;;;16.57;100.00;99576.63;105074;1257;66843;-55
2023/06/20 00:16:04;;;;;;;6.10;5.70;;;;;;;16.50;100.00;99577.18;106777;1257;72672;-54
2023/06/20 00:18:31;;;;;;;5.80;5.40;;;;;;;16.44;100.00;99572.52;105071;1260;61744;-53
2023/06/20 00:20:59;;;;;;;7.00;6.50;;;;;;;16.44;100.00;99568.02;105069;1258;60299;-53
2023/06/20 00:23:29;;;;;;;5.90;5.50;;;;;;;16.44;100.00;99568.16;105003;1262;74547;-53
2023/06/20 00:25:57;;;;;;;5.90;5.40;;;;;;;16.45;100.00;99566.45;105165;1261;66890;-54
2023/06/20 00:28:24;;;;;;;6.20;5.80;;;;;;;16.43;100.00;99567.73;105216;1257;72660;-53
2023/06/20 00:30:51;;;;;;;6.70;5.90;;;;;;;16.33;100.00;99567.40;105071;1257;62086;-53
2023/06/20 00:33:19;;;;;;;6.60;6.30;;;;;;;16.21;100.00;99565.75;105202;1257;60511;-52
2023/06/20 00:35:47;;;;;;;7.30;6.70;;;;;;;16.16;100.00;99565.78;105166;1262;73847;-53
2023/06/20 00:38:14;;;;;;;7.10;6.60;;;;;;;16.15;100.00;99563.89;105044;1260;68685;-52
2023/06/20 00:40:41;;;;;;;5.50;5.10;;;;;;;16.11;100.00;99564.35;105033;1256;72738;-52
2023/06/20 00:43:09;;;;;;;6.80;6.20;;;;;;;16.04;100.00;99564.12;105069;1272;60956;-54
2023/06/20 00:45:36;;;;;;;5.10;4.80;;;;;;;16.01;100.00;99568.55;105051;1256;60593;-55
2023/06/20 00:48:05;;;;;;;5.10;4.70;;;;;;;15.95;100.00;99566.95;105088;1262;73801;-53
2023/06/20 00:50:33;;;;;;;5.20;4.90;;;;;;;15.94;100.00;99566.33;108266;1257;65854;-54
2023/06/20 00:53:05;;;;;;;6.60;5.00;;;;;;;15.95;100.00;99566.79;107741;1257;73143;-52
2023/06/20 00:55:34;;;;;;;4.50;4.20;;;;;;;15.94;100.00;99565.06;107129;1257;60531;-54
2023/06/20 00:58:02;;;;;;;4.50;4.10;;;;;;;15.88;100.00;99568.04;105435;1257;60594;-53
2023/06/20 01:00:33;;;;;;;4.80;4.50;;;;;;;15.85;100.00;99565.87;105290;1257;73787;-53
2023/06/20 01:03:04;;;;;;;5.50;5.20;;;;;;;15.87;100.00;99564.13;105116;1257;66752;-53
2023/06/20 01:05:31;;;;;;;5.30;4.90;;;;;;;15.89;100.00;99561.94;105177;1260;71713;-54
2023/06/20 01:08:08;;;;;;;6.60;4.80;;;;;;;15.93;100.00;99565.34;104944;1263;62120;-54
2023/06/20 01:10:48;;;;;;;5.30;4.50;;;;;;;15.94;100.00;99563.77;105160;1259;60373;-54
2023/06/20 01:13:25;;;;;;;5.20;4.90;;;;;;;15.95;100.00;99565.89;105209;1257;72577;-54
2023/06/20 01:15:52;;;;;;;5.10;4.60;;;;;;;15.93;100.00;99565.13;105218;1257;66724;-53
2023/06/20 01:18:26;;;;;;;5.70;5.40;;;;;;;15.91;100.00;99562.42;105045;1257;73316;-52
2023/06/20 01:20:58;;;;;;;6.50;6.00;;;;;;;15.87;100.00;99566.84;105249;1257;60826;-53
2023/06/20 01:23:29;;;;;;;6.50;6.20;;;;;;;15.80;100.00;99574.59;105189;1260;61098;-53
2023/06/20 01:26:11;;;;;;;6.60;6.20;;;;;;;15.71;100.00;99582.48;104572;1260;73817;-53
2023/06/20 01:28:44;;;;;;;6.10;5.70;;;;;;;15.65;100.00;99583.27;104549;1256;65189;-52
2023/06/20 01:31:13;;;;;;;5.50;5.30;;;;;;;15.62;100.00;99584.20;104896;1261;72227;-53
2023/06/20 01:34:12;;;;;;;5.60;5.10;;;;;;;15.62;100.00;99585.14;108678;1257;61250;-54
2023/06/20 01:36:40;;;;;;;6.20;5.80;;;;;;;15.60;100.00;99585.98;108733;1259;59486;-55
2023/06/20 01:39:10;;;;;;;6.10;5.70;;;;;;;15.59;100.00;99591.12;108772;1257;73817;-54
2023/06/20 01:41:39;;;;;;;7.00;5.70;;;;;;;15.56;100.00;99591.38;108765;1257;66943;-54
2023/06/20 01:44:07;;;;;;;6.20;5.80;;;;;;;15.56;100.00;99586.11;108682;1257;71296;-54
2023/06/20 01:46:34;;;;;;;6.40;6.10;;;;;;;15.59;100.00;99592.73;108782;1260;61528;-55
2023/06/20 01:49:02;;;;;;;6.70;6.10;;;;;;;15.62;100.00;99593.48;108739;1261;59162;-55
2023/06/20 01:51:29;;;;;;;6.00;5.70;;;;;;;15.65;100.00;99593.45;108657;1262;73850;-55
2023/06/20 01:53:56;;;;;;;6.00;5.70;;;;;;;15.68;100.00;99589.75;108779;1257;66043;-52
2023/06/20 01:56:24;;;;;;;6.50;6.10;;;;;;;15.73;100.00;99594.95;108809;1257;70773;-52
2023/06/20 01:58:53;;;;;;;5.70;5.40;;;;;;;15.77;100.00;99593.61;108697;1260;60532;-53
2023/06/20 02:01:20;;;;;;;6.60;6.00;;;;;;;15.78;100.00;99595.33;108753;1257;58790;-53
2023/06/20 02:03:47;;;;;;;6.00;5.50;;;;;;;15.75;100.00;99600.23;108763;1256;72895;-51
2023/06/20 02:06:15;;;;;;;6.30;5.80;;;;;;;15.70;100.00;99600.63;108694;1257;66055;-51
2023/06/20 02:08:43;;;;;;;5.60;5.30;;;;;;;15.67;100.00;99602.84;108665;1256;70727;-51
2023/06/20 02:11:10;;;;;;;5.80;5.50;;;;;;;15.67;100.00;99600.86;108796;1257;61677;-51
2023/06/20 02:13:37;;;;;;;5.80;5.50;;;;;;;15.67;100.00;99603.55;108751;1257;58780;-51
2023/06/20 02:16:06;;;;;;;5.70;5.40;;;;;;;15.70;100.00;99607.34;108318;1262;74260;-51
2023/06/20 02:18:36;;;;;;;5.50;5.20;;;;;;;15.74;100.00;99611.73;104931;1263;64550;-52
2023/06/20 02:21:05;;;;;;;7.50;7.10;;;;;;;15.75;100.00;99618.19;104933;1265;72758;-49
2023/06/20 02:23:33;;;;;;;6.40;5.80;;;;;;;15.71;100.00;99621.02;105123;1262;61698;-51
2023/06/20 02:26:12;;;;;;;6.60;6.30;;;;;;;15.69;100.00;99621.33;105046;1256;60466;-51
2023/06/20 02:28:42;;;;;;;7.60;6.90;;;;;;;15.70;100.00;99625.25;106095;1263;75415;-51
2023/06/20 02:31:13;;;;;;;8.90;8.30;;;;;;;15.72;100.00;99626.17;105280;1262;65517;-51
2023/06/20 02:33:41;;;;;;;8.40;7.90;;;;;;;15.75;100.00;99631.95;105121;1260;72199;-51
2023/06/20 02:36:08;;;;;;;8.30;7.80;;;;;;;15.77;100.00;99633.23;104919;1257;60566;-51
2023/06/20 02:38:36;;;;;;;7.80;7.30;;;;;;;15.78;100.00;99634.04;105044;1259;60375;-51
2023/06/20 02:41:04;;;;;;;7.20;6.80;;;;;;;15.80;100.00;99633.73;105096;1257;73078;-51
2023/06/20 02:43:32;;;;;;;8.80;8.20;;;;;;;15.82;100.00;99633.41;104981;1257;66930;-50
2023/06/20 02:46:22;;;;;;;7.50;7.10;;;;;;;15.86;100.00;99630.02;104988;1262;72697;-52
2023/06/20 02:49:01;;;;;;;8.20;7.50;;;;;;;15.93;100.00;99635.52;105893;1257;62383;-51
2023/06/20 02:51:33;;;;;;;8.70;8.20;;;;;;;15.96;100.00;99637.87;104857;1257;60486;-51
2023/06/20 02:54:07;;;;;;;8.70;8.20;;;;;;;15.95;100.00;99641.92;104975;1257;73246;-52
2023/06/20 02:56:36;;;;;;;10.40;7.80;;;;;;;15.93;100.00;99644.17;106858;1257;67510;-51
2023/06/20 02:59:03;;;;;;;8.00;7.40;;;;;;;15.96;100.00;99649.81;105039;1262;72934;-51
2023/06/20 03:01:32;;;;;;;9.90;8.90;;;;;;;16.00;100.00;99652.41;105231;1256;61701;-52
2023/06/20 03:04:01;;;;;;;8.60;8.00;;;;;;;16.04;100.00;99651.60;105232;1257;61769;-50
2023/06/20 03:06:29;;;;;;;9.10;8.50;;;;;;;16.08;100.00;99647.24;105342;1257;72546;-51
2023/06/20 03:08:59;;;;;;;9.00;8.40;;;;;;;16.14;100.00;99652.44;104984;1264;66900;-50
2023/06/20 03:11:26;;;;;;;9.00;8.20;;;;;;;16.18;100.00;99657.95;105471;1257;71410;-52
2023/06/20 03:13:53;;;;;;;8.70;8.10;;;;;;;16.18;100.00;99657.34;104967;1260;60674;-51
2023/06/20 03:16:21;;;;;;;8.20;7.70;;;;;;;16.22;100.00;99659.81;105186;1257;60543;-51
2023/06/20 03:18:51;;;;;;;9.70;9.10;;;;;;;16.30;100.00;99662.67;105276;1262;73844;-52
2023/06/20 03:21:20;;;;;;;9.30;8.60;;;;;;;16.38;100.00;99663.74;105181;1257;66397;-51
2023/06/20 03:23:58;;;;;;;10.40;9.50;;;;;;;16.45;100.00;99663.35;105027;1262;72460;-50
2023/06/20 03:26:26;;;;;;;8.90;8.40;;;;;;;16.51;100.00;99660.91;105244;1260;60534;-51
2023/06/20 03:28:53;;;;;;;10.10;9.40;;;;;;;16.57;100.00;99663.34;105267;1262;60516;-50
2023/06/20 03:31:21;;;;;;;9.50;8.80;;;;;;;16.63;100.00;99661.67;105266;1257;73879;-51
2023/06/20 03:33:49;;;;;;;9.10;8.40;;;;;;;16.70;100.00;99666.80;105309;1257;65633;-50
2023/06/20 03:36:16;;;;;;;10.60;9.70;;;;;;;16.76;100.00;99671.08;105120;1262;72749;-51
2023/06/20 03:38:43;;;;;;;10.40;9.40;;;;;;;16.80;100.00;99670.56;105104;1259;61724;-51
2023/06/20 03:41:11;;;;;;;9.70;9.00;;;;;;;16.85;100.00;99673.43;105088;1262;60508;-52
2023/06/20 03:43:40;;;;;;;9.90;9.10;;;;;;;16.91;100.00;99671.20;105123;1257;73485;-52
2023/06/20 03:46:08;;;;;;;8.90;8.30;;;;;;;16.97;100.00;99672.89;104837;1257;67490;-51
2023/06/20 03:48:35;;;;;;;9.50;8.60;;;;;;;17.03;100.00;99676.40;104847;1257;71444;-52
2023/06/20 03:51:03;;;;;;;9.60;9.00;;;;;;;17.10;100.00;99683.52;104997;1257;61741;-50
2023/06/20 03:53:31;;;;;;;9.30;8.60;;;;;;;17.17;100.00;99691.66;106207;1262;60501;-52
2023/06/20 03:55:58;;;;;;;9.30;8.60;;;;;;;17.24;100.00;99691.11;105211;1257;73703;-52
2023/06/20 03:58:26;;;;;;;9.10;8.50;;;;;;;17.31;100.00;99687.30;105058;1257;65958;-50
2023/06/20 04:00:54;;;;;;;8.00;7.50;;;;;;;17.39;100.00;99685.80;105380;1260;73107;-53
2023/06/20 04:03:21;;;;;;;7.90;7.40;;;;;;;17.46;100.00;99693.40;105111;1257;61653;-50
2023/06/20 04:05:49;;;;;;;7.30;6.90;;;;;;;17.53;100.00;99695.95;105305;1257;60623;-52
2023/06/20 04:08:18;;;;;;;8.80;8.30;;;;;;;17.60;100.00;99700.16;104962;1257;72626;-51
2023/06/20 04:10:49;;;;;;;9.20;8.50;;;;;;;17.67;100.00;99705.40;105184;1262;66101;-50
2023/06/20 04:13:17;;;;;;;8.70;8.00;;;;;;;17.74;100.00;99709.20;105181;1262;71801;-52
2023/06/20 04:15:44;;;;;;;7.70;7.30;;;;;;;17.80;100.00;99709.61;104966;1263;61095;-52
2023/06/20 04:18:11;;;;;;;8.50;7.90;;;;;;;17.88;100.00;99709.39;105096;1256;60448;-51
2023/06/20 04:20:39;;;;;;;7.40;6.80;;;;;;;17.97;100.00;99711.04;105173;1257;73865;-51
2023/06/20 04:23:06;;;;;;;10.40;7.90;;;;;;;18.07;100.00;99716.04;105195;1257;67158;-51
2023/06/20 04:25:34;;;;;;;7.40;7.00;;;;;;;18.15;100.00;99717.72;105590;1257;72659;-50
2023/06/20 04:28:03;;;;;;;7.30;7.00;;;;;;;18.24;100.00;99719.42;108570;1257;63406;-51
2023/06/20 04:30:38;;;;;;;6.30;5.90;;;;;;;18.32;100.00;99728.15;108792;1254;60191;-52
2023/06/20 04:33:06;;;;;;;7.60;7.20;;;;;;;18.40;100.00;99730.09;108789;1255;73866;-52
2023/06/20 04:35:36;;;;;;;6.60;5.80;;;;;;;18.47;100.00;99736.40;108706;1254;67435;-52
2023/06/20 04:38:04;;;;;;;8.00;7.40;;;;;;;18.53;100.00;99739.15;108726;1256;74805;-52
2023/06/20 04:40:31;;;;;;;7.20;6.80;;;;;;;18.57;100.00;99740.88;108725;1260;61717;-51
2023/06/20 04:42:59;;;;;;;7.00;6.40;;;;;;;18.60;100.00;99738.44;108875;1256;60089;-51
2023/06/20 04:45:27;;;;;;;7.30;6.80;;;;;;;18.63;100.00;99741.69;108868;1254;74474;-52
2023/06/20 04:47:57;;;;;;;6.50;6.10;;;;;;;18.67;100.00;99741.36;108810;1254;65569;-52
2023/06/20 04:50:26;;;;;;;7.70;7.20;;;;;;;18.73;100.00;99743.73;108744;1256;72636;-54
2023/06/20 04:52:53;;;;;;;6.50;6.20;;;;;;;18.81;100.00;99746.84;108924;1260;61609;-53
2023/06/20 04:55:21;;;;;;;5.80;5.50;;;;;;;18.92;100.00;99746.14;108936;1254;58743;-53
2023/06/20 04:57:48;;;;;;;7.10;6.70;;;;;;;19.03;100.00;99749.76;108876;1257;74227;-53
2023/06/20 05:00:16;;;;;;;8.00;7.50;;;;;;;19.15;100.00;99750.62;108885;1254;65020;-54
2023/06/20 05:02:44;;;;;;;7.20;6.10;;;;;;;19.25;100.00;99747.74;108878;1255;73062;-53
2023/06/20 05:05:11;;;;;;;6.70;6.40;;;;;;;19.37;100.00;99749.46;108868;1257;60355;-54
2023/06/20 05:07:40;;;;;;;6.80;6.30;;;;;;;19.49;100.00;99749.36;108792;1256;58754;-53
2023/06/20 05:10:08;;;;;;;6.60;6.20;;;;;;;19.61;100.00;99755.44;108756;1254;74374;-52
2023/06/20 05:12:35;;;;;;;6.50;5.00;;;;;;;19.74;100.00;99762.23;108844;1257;65615;-52
2023/06/20 05:15:04;;;;;;;6.20;5.70;;;;;;;19.85;100.00;99759.75;108961;1254;71052;-52
2023/06/20 05:17:31;;;;;;;6.70;6.20;;;;;;;19.95;100.00;99761.20;105668;1259;61615;-51
2023/06/20 05:20:05;;;;;;;7.10;6.50;;;;;;;20.02;100.00;99760.79;104678;1257;60502;-50
2023/06/20 05:22:33;;;;;;;5.30;4.90;;;;;;;20.08;100.00;99765.23;106062;1256;73173;-52
2023/06/20 05:25:01;;;;;;;6.80;5.50;;;;;;;20.12;100.00;99770.46;104632;1260;65032;-52
2023/06/20 05:27:28;;;;;;;5.90;5.50;;;;;;;20.17;100.00;99773.86;104940;1259;73154;-51
2023/06/20 05:29:56;;;;;;;6.00;5.60;;;;;;;20.23;100.00;99778.64;105117;1256;61092;-50
2023/06/20 05:32:23;;;;;;;7.20;6.80;;;;;;;20.26;100.00;99783.95;105277;1256;61214;-51
2023/06/20 05:34:51;;;;;;;7.00;6.30;;;;;;;20.28;100.00;99784.75;105214;1254;73836;-52
2023/06/20 05:37:19;;;;;;;7.10;6.50;;;;;;;20.32;100.00;99787.31;105013;1257;65565;-51
2023/06/20 05:39:46;;;;;;;9.50;7.00;;;;;;;20.37;100.00;99789.41;104868;1257;72705;-50
2023/06/20 05:42:13;;;;;;;8.40;6.90;;;;;;;20.44;100.00;99789.52;104924;1259;60591;-50
2023/06/20 05:44:41;;;;;;;7.10;6.70;;;;;;;20.51;100.00;99791.70;105148;1257;60499;-52
2023/06/20 05:47:12;;;;;;;5.90;5.60;;;;;;;20.59;100.00;99790.95;105339;1259;73825;-53
2023/06/20 05:49:39;;;;;;;6.70;6.10;;;;;;;20.66;100.00;99789.61;105392;1255;67338;-51
2023/06/20 05:52:07;;;;;;;7.60;6.80;;;;;;;20.72;100.00;99788.49;104983;1254;72290;-52
2023/06/20 05:54:34;;;;;;;7.10;6.30;;;;;;;20.77;100.00;99788.80;105130;1262;62237;-51
2023/06/20 05:57:05;;;;;;;5.80;5.50;;;;;;;20.81;100.00;99787.90;105229;1257;60730;-50
2023/06/20 05:59:33;;;;;;;7.00;6.40;;;;;;;20.86;100.00;99789.96;107214;1255;73251;-51
2023/06/20 06:02:00;;;;;;;6.30;5.90;;;;;;;20.92;100.00;99787.08;105454;1258;65623;-51
2023/06/20 06:04:27;;;;;;;6.50;6.00;;;;;;;20.97;100.00;99794.29;105429;1257;72490;-50
2023/06/20 06:06:55;;;;;;;7.30;6.90;;;;;;;21.02;100.00;99791.60;105196;1259;61000;-52
2023/06/20 06:09:22;;;;;;;8.50;7.70;;;;;;;21.08;100.00;99788.68;104680;1264;60435;-51
2023/06/20 06:11:49;;;;;;;8.40;7.80;;;;;;;21.14;100.00;99788.13;104949;1260;73826;-51
2023/06/20 06:14:16;;;;;;;9.20;8.60;;;;;;;21.22;100.00;99786.55;104768;1254;66846;-52
2023/06/20 06:16:44;;;;;;;8.40;7.60;;;;;;;21.30;100.00;99788.67;104696;1259;71449;-52
2023/06/20 06:19:11;;;;;;;8.10;7.50;;;;;;;21.37;100.00;99797.74;104925;1257;60530;-52
2023/06/20 06:21:39;;;;;;;7.50;6.90;;;;;;;21.43;100.00;99800.40;104900;1258;60598;-51
2023/06/20 06:24:08;;;;;;;7.20;6.60;;;;;;;21.51;100.00;99803.13;104922;1258;73906;-52
2023/06/20 06:26:36;;;;;;;6.50;5.90;;;;;;;21.61;100.00;99800.77;104932;1259;65983;-52
2023/06/20 06:29:06;;;;;;;6.20;5.70;;;;;;;21.71;100.00;99802.60;105002;1260;71322;-52
2023/06/20 06:31:34;;;;;;;6.00;5.60;;;;;;;21.79;100.00;99802.52;104626;1258;262922;-50
2023/06/20 06:35:38;;;;;;;6.70;6.20;;;;;;;21.97;100.00;99811.67;101887;1292;601153;-51
2023/06/20 06:38:05;;;;;;;5.90;5.30;;;;;;;22.04;100.00;99812.26;104157;1267;60105;-52
2023/06/20 06:40:33;;;;;;;6.70;6.30;;;;;;;22.12;100.00;99808.56;104175;1270;60745;-52
2023/06/20 06:43:00;;;;;;;5.70;5.40;;;;;;;22.20;100.00;99809.08;103770;1267;71850;-51
2023/06/20 06:45:28;;;;;;;6.00;5.40;;;;;;;22.29;100.00;99814.23;104242;1270;65849;-52
2023/06/20 06:47:56;;;;;;;6.30;5.90;;;;;;;22.39;100.00;99820.61;104371;1270;72644;-52
2023/06/20 06:50:23;;;;;;;7.20;5.40;;;;;;;22.47;100.00;99822.41;104272;1269;366071;-52
2023/06/20 06:52:51;;;;;;;5.80;5.30;;;;;;;22.52;100.00;99828.27;104769;1260;60836;-52
2023/06/20 06:55:19;;;;;;;6.30;5.80;;;;;;;22.57;100.00;99827.02;105463;1263;72937;-52
2023/06/20 06:57:46;;;;;;;5.50;5.10;;;;;;;22.64;100.00;99827.42;104522;1265;66868;-54
2023/06/20 07:00:14;;;;;;;5.10;4.70;;;;;;;22.73;100.00;99831.58;104398;1263;72753;-52
2023/06/20 07:02:43;;;;;;;5.60;5.30;;;;;;;22.82;100.00;99834.73;105645;1267;60508;-53
2023/06/20 07:05:11;;;;;;;7.60;6.40;;;;;;;22.91;100.00;99832.33;106680;1263;60076;-55
2023/06/20 07:07:38;;;;;;;6.20;5.80;;;;;;;22.99;100.00;99837.58;104447;1269;73009;-53
2023/06/20 07:10:06;;;;;;;5.30;4.90;;;;;;;23.08;100.00;99843.50;103957;1266;67215;-53
2023/06/20 07:12:33;;;;;;;5.10;4.80;;;;;;;23.15;100.00;99842.48;104533;1269;72761;-52
2023/06/20 07:15:01;;;;;;;5.40;4.90;;;;;;;23.20;100.00;99849.27;104217;1264;60573;-54
2023/06/20 07:17:28;;;;;;;4.50;4.30;;;;;;;23.23;100.00;99844.74;108390;1263;59972;-52
2023/06/20 07:19:55;;;;;;;7.60;3.50;;;;;;;23.24;100.00;99842.43;108373;1262;73486;-53
2023/06/20 07:22:24;;;;;;;5.20;5.00;;;;;;;23.27;100.00;99848.15;105798;1264;65928;-53
2023/06/20 07:24:51;;;;;;;5.10;4.90;;;;;;;23.30;100.00;99850.00;104793;1264;74147;-51
2023/06/20 07:27:23;;;;;;;4.80;4.50;;;;;;;23.33;100.00;99853.38;104835;1269;59638;-52
2023/06/20 07:29:50;;;;;;;4.80;3.80;;;;;;;23.36;100.00;99854.06;104865;1263;60685;-51
2023/06/20 07:32:18;;;;;;;5.30;4.70;;;;;;;23.38;100.00;99858.05;104956;1263;73025;-53
2023/06/20 07:34:46;;;;;;;5.30;4.90;;;;;;;23.44;100.00;99850.17;104808;1267;66775;-54
2023/06/20 07:37:14;;;;;;;4.60;4.30;;;;;;;23.51;100.00;99849.98;104203;1269;71892;-52
2023/06/20 07:39:42;;;;;;;4.10;3.70;;;;;;;23.60;100.00;99848.55;104710;1258;60611;-52
2023/06/20 07:42:10;;;;;;;20.20;12.30;;;;;;;23.69;100.00;99848.33;108788;1257;58880;-53
2023/06/20 07:44:37;;;;;;;5.60;5.20;;;;;;;23.79;100.00;99851.17;108825;1262;71785;-52
2023/06/20 07:47:05;;;;;;;5.50;4.50;;;;;;;23.88;100.00;99851.52;108844;1257;65972;-52
2023/06/20 07:49:32;;;;;;;5.40;5.00;;;;;;;23.96;100.00;99855.14;108804;1257;71570;-54
2023/06/20 07:51:59;;;;;;;4.50;4.30;;;;;;;24.03;100.00;99858.75;108930;1258;60718;-53
2023/06/20 07:54:27;;;;;;;3.60;3.40;;;;;;;24.12;100.00;99861.89;108817;1257;58759;-52
2023/06/20 07:56:54;;;;;;;4.70;4.50;;;;;;;24.19;100.00;99866.30;108821;1256;73079;-52
2023/06/20 07:59:22;;;;;;;4.20;3.90;;;;;;;24.26;100.00;99866.39;108807;1257;66784;-53
2023/06/20 08:01:49;;;;;;;5.30;5.00;;;;;;;24.32;100.00;99867.54;108881;1257;72803;-54
2023/06/20 08:04:17;;;;;;;5.10;4.80;;;;;;;24.38;100.00;99869.34;108808;1257;60034;-53
2023/06/20 08:06:44;;;;;;;5.80;4.90;;;;;;;24.44;100.00;99870.67;107024;1262;59518;-52
2023/06/20 08:09:11;;;;;;;6.40;5.30;;;;;;;24.52;100.00;99877.33;105263;1262;72470;-52
2023/06/20 08:11:38;;;;;;;5.50;5.20;;;;;;;24.59;100.00;99876.29;105096;1257;65600;-52
2023/06/20 08:14:05;;;;;;;4.80;4.50;;;;;;;24.62;100.00;99874.29;105237;1260;71068;-52
2023/06/20 08:16:33;;;;;;;5.90;5.40;;;;;;;24.66;100.00;99876.04;105254;1263;59646;-52
2023/06/20 08:19:00;;;;;;;5.80;5.30;;;;;;;24.70;100.00;99883.90;105188;1263;60576;-53
2023/06/20 08:21:27;;;;;;;5.40;5.00;;;;;;;24.75;100.00;99883.39;105131;1256;72183;-52
2023/06/20 08:23:55;;;;;;;17.40;5.20;;;;;;;24.80;100.00;99882.84;105244;1263;66793;-53
2023/06/20 08:26:22;;;;;;;4.20;3.90;;;;;;;24.86;100.00;99887.15;105533;1257;72480;-52
2023/06/20 08:28:49;;;;;;;4.80;4.40;;;;;;;24.97;100.00;99885.70;105166;1257;59784;-51
2023/06/20 08:31:16;;;;;;;5.60;5.20;;;;;;;25.07;100.00;99891.59;105202;1257;59995;-52
2023/06/20 08:33:44;;;;;;;5.40;4.80;;;;;;;25.16;100.00;99892.77;105203;1263;73057;-52
2023/06/20 08:36:11;;;;;;;5.60;5.40;;;;;;;25.19;100.00;99897.22;105249;1257;65613;-52
2023/06/20 08:38:38;;;;;;;5.10;4.70;;;;;;;25.19;100.00;99888.38;105189;1260;71822;-52
2023/06/20 08:41:09;;;;;;;5.10;4.80;;;;;;;25.21;100.00;99891.83;105100;1262;60058;-51
2023/06/20 08:43:36;;;;;;;6.00;5.20;;;;;;;25.26;100.00;99893.55;105107;1257;60011;-51
2023/06/20 08:46:04;;;;;;;6.70;6.30;;;;;;;25.30;100.00;99894.95;105133;1258;71743;-53
2023/06/20 08:48:31;;;;;;;4.90;4.70;;;;;;;25.32;100.00;99892.55;105143;1261;66186;-53
2023/06/20 08:50:58;;;;;;;5.60;5.10;;;;;;;25.35;100.00;99894.04;105231;1262;72948;-53
2023/06/20 08:53:26;;;;;;;4.20;3.80;;;;;;;25.41;100.00;99892.80;105200;1259;59992;-53
2023/06/20 08:55:53;;;;;;;4.00;3.70;;;;;;;25.50;100.00;99894.62;105118;1258;59659;-54
2023/06/20 08:58:21;;;;;;;4.20;4.00;;;;;;;25.58;100.00;99898.73;105054;1264;71905;-51
2023/06/20 09:00:49;;;;;;;4.40;4.10;;;;;;;25.63;100.00;99901.31;105561;1262;66137;-52
2023/06/20 09:03:16;;;;;;;4.10;3.90;;;;;;;25.66;100.00;99901.92;105318;1263;72629;-53
2023/06/20 09:05:47;;;;;;;4.60;4.30;;;;;;;25.70;100.00;99903.38;105240;1257;59997;-54
2023/06/20 09:08:15;;;;;;;5.30;4.80;;;;;;;25.72;100.00;99901.31;105381;1257;60512;-52
2023/06/20 09:10:44;;;;;;;4.70;4.30;;;;;;;25.72;100.00;99904.80;105333;1257;73042;-52
2023/06/20 09:13:15;;;;;;;4.40;4.20;;;;;;;25.75;100.00;99907.34;105702;1257;65624;-52
2023/06/20 09:15:42;;;;;;;3.80;3.60;;;;;;;25.83;100.00;99906.43;105245;1262;72667;-53
2023/06/20 09:18:12;;;;;;;5.10;4.70;;;;;;;25.95;100.00;99906.08;105226;1261;60071;-53
2023/06/20 09:20:42;;;;;;;5.50;4.50;;;;;;;26.06;100.00;99901.41;105736;1258;60010;-52
2023/06/20 09:23:11;;;;;;;4.10;3.30;;;;;;;26.14;100.00;99899.84;105269;1257;71498;-51
2023/06/20 09:25:39;;;;;;;5.00;4.10;;;;;;;26.20;100.00;99902.90;105188;1262;67286;-53
2023/06/20 09:28:17;;;;;;;6.20;5.20;;;;;;;26.23;100.00;99900.30;105622;1263;72353;-50
2023/06/20 09:30:47;;;;;;;3.40;3.30;;;;;;;26.23;100.00;99895.58;105271;1262;60100;-52
2023/06/20 09:33:16;;;;;;;4.40;4.10;;;;;;;26.23;100.00;99893.95;105686;1258;60082;-51
2023/06/20 09:35:43;;;;;;;3.90;3.70;;;;;;;26.26;100.00;99900.37;105313;1263;72987;-53
2023/06/20 09:38:10;;;;;;;4.20;3.60;;;;;;;26.34;100.00;99895.66;105373;1261;67253;-51
2023/06/20 09:40:44;;;;;;;2.60;2.50;;;;;;;26.44;100.00;99902.91;105320;1258;73150;-53
2023/06/20 09:43:12;;;;;;;4.00;2.50;;;;;;;26.52;100.00;99898.39;105484;1263;60425;-52
2023/06/20 09:45:40;;;;;;;2.80;2.60;;;;;;;26.62;100.00;99899.88;105523;1258;59824;-52
2023/06/20 09:48:08;;;;;;;2.20;2.00;;;;;;;26.73;100.00;99903.35;105551;1258;73019;-53
2023/06/20 09:50:37;;;;;;;3.20;2.80;;;;;;;26.85;100.00;99902.62;105219;1258;66668;-52
2023/06/20 09:53:29;;;;;;;3.40;3.10;;;;;;;26.97;100.00;99902.19;105368;1262;72914;-51
2023/06/20 09:55:57;;;;;;;4.00;2.60;;;;;;;27.05;100.00;99900.90;105331;1260;60119;-52
2023/06/20 09:58:25;;;;;;;2.50;2.40;;;;;;;27.11;100.00;99905.45;105307;1256;60545;-51
2023/06/20 10:00:52;;;;;;;2.90;2.30;;;;;;;27.16;100.00;99903.66;105485;1257;73041;-52
2023/06/20 10:03:19;;;;;;;3.40;3.20;;;;;;;27.18;100.00;99902.45;105093;1257;66788;-51
2023/06/20 10:05:47;;;;;;;3.70;3.00;;;;;;;27.24;100.00;99902.91;105270;1260;71491;-51
2023/06/20 10:08:16;;;;;;;3.00;2.70;;;;;;;27.31;100.00;99899.48;105202;1263;59877;-52
2023/06/20 10:10:43;;;;;;;8.30;2.60;;;;;;;27.39;100.00;99903.14;105584;1263;59626;-52
2023/06/20 10:13:11;;;;;;;3.00;2.10;;;;;;;27.45;100.00;99906.73;105205;1258;73003;-53
2023/06/20 10:15:38;;;;;;;2.80;2.60;;;;;;;27.47;100.00;99903.13;104970;1264;65623;-53
2023/06/20 10:18:18;;;;;;;3.10;2.90;;;;;;;27.49;100.00;99903.83;105130;1263;72000;-53
2023/06/20 10:20:45;;;;;;;3.30;3.20;;;;;;;27.53;100.00;99901.73;105655;1257;59741;-51
2023/06/20 10:23:12;;;;;;;2.30;2.20;;;;;;;27.56;100.00;99901.35;105227;1257;59879;-51
2023/06/20 10:25:53;;;;;;;2.60;2.40;;;;;;;27.58;100.00;99904.79;105033;1257;73027;-52
2023/06/20 10:28:21;;;;;;;2.60;2.40;;;;;;;27.57;100.00;99903.17;105593;1262;65743;-52
2023/06/20 10:30:49;;;;;;;3.20;3.00;;;;;;;27.51;100.00;99907.11;105618;1257;72451;-50
2023/06/20 10:33:36;;;;;;;3.70;2.90;;;;;;;27.41;100.00;99904.97;105272;1259;59685;-52
2023/06/20 10:36:04;;;;;;;3.70;3.20;;;;;;;27.30;100.00;99900.59;105099;1258;60008;-51
2023/06/20 10:38:33;;;;;;;2.80;2.50;;;;;;;27.23;100.00;99899.32;105550;1263;73124;-52
2023/06/20 10:41:23;;;;;;;3.00;2.80;;;;;;;27.22;100.00;99896.11;108875;1257;66951;-52
2023/06/20 10:43:52;;;;;;;4.00;2.40;;;;;;;27.25;100.00;99891.92;108891;1257;72424;-53
2023/06/20 10:46:21;;;;;;;3.20;3.00;;;;;;;27.27;100.00;99893.96;108855;1257;60086;-53
2023/06/20 10:48:48;;;;;;;3.10;2.50;;;;;;;27.25;100.00;99891.13;108910;1256;59363;-54
2023/06/20 10:51:16;;;;;;;7.40;4.10;;;;;;;27.27;100.00;99880.46;108878;1257;73850;-53
2023/06/20 10:53:43;;;;;;;3.10;2.80;;;;;;;27.33;100.00;99875.80;108825;1255;66153;-53
2023/06/20 10:56:26;;;;;;;3.50;3.20;;;;;;;27.46;100.00;99877.65;108882;1257;72754;-52
2023/06/20 10:58:54;;;;;;;2.80;2.70;;;;;;;27.60;100.00;99878.11;109218;1254;60014;-52
2023/06/20 11:01:25;;;;;;;2.60;2.50;;;;;;;27.72;100.00;99875.01;109215;1252;60048;-54
2023/06/20 11:03:52;;;;;;;2.60;2.50;;;;;;;27.82;100.00;99869.00;109114;1259;73772;-53
2023/06/20 11:06:20;;;;;;;5.30;2.90;;;;;;;27.92;100.00;99863.90;109105;1253;66277;-53
2023/06/20 11:08:47;;;;;;;3.70;3.40;;;;;;;28.04;100.00;99865.48;109187;1254;72886;-52
2023/06/20 11:11:14;;;;;;;3.30;2.20;;;;;;;28.08;100.00;99862.54;108996;1254;60070;-53
2023/06/20 11:13:43;;;;;;;3.50;2.40;;;;;;;28.11;100.00;99862.39;107518;1254;60601;-52
2023/06/20 11:16:18;;;;;;;2.60;2.50;;;;;;;28.17;100.00;99857.08;106360;1254;73860;-53
2023/06/20 11:18:45;;;;;;;3.50;3.20;;;;;;;28.24;100.00;99855.34;105524;1254;67252;-53
2023/06/20 11:21:15;;;;;;;3.50;3.20;;;;;;;28.28;100.00;99850.05;109176;1254;72422;-53
2023/06/20 11:23:42;;;;;;;4.00;3.20;;;;;;;28.31;100.00;99844.91;109200;1254;59611;-53
2023/06/20 11:26:10;;;;;;;2.50;2.40;;;;;;;28.34;100.00;99842.02;109206;1253;59034;-53